sensor_id;sensor_type;location;lat;lon;timestamp;pressure;altitude;pressure_sealevel;temperature;humidity
79400;BME280;68856;45.586;10.264;2023-08-24T00:01:05;99408.50;;;28.21;100.00
79400;BME280;68856;45.586;10.264;2023-08-24T00:03:31;99413.09;;;28.32;100.00
79400;BME280;68856;45.586;10.264;2023-08-24T00:05:58;99415.38;;;28.27;100.00
79400;BME280;68856;45.586;10.264;2023-08-24T00:08:25;99409.81;;;28.27;100.00
79400;BME280;68856;45.586;10.264;2023-08-24T00:10:51;99407.13;;;28.53;100.00
79400;BME280;68856;45.586;10.264;2023-08-24T00:13:17;99408.06;;;28.61;100.00
79400;BME280;68856;45.586;10.264;2023-08-24T00:15:45;99418.09;;;28.42;100.00
79400;BME280;68856;45.586;10.264;2023-08-24T00:18:11;99407.72;;;28.43;100.00
79400;BME280;68856;45.586;10.264;2023-08-24T00:20:38;99407.81;;;28.47;100.00
79400;BME280;68856;45.586;10.264;2023-08-24T00:23:04;99411.00;;;28.07;100.00
79400;BME280;68856;45.586;10.264;2023-08-24T00:25:31;99408.66;;;28.51;100.00
79400;BME280;68856;45.586;10.264;2023-08-24T00:27:57;99414.59;;;28.07;100.00
79400;BME280;68856;45.586;10.264;2023-08-24T00:30:24;99409.88;;;28.11;100.00
79400;BME280;68856;45.586;10.264;2023-08-24T00:32:50;99414.13;;;28.24;100.00
79400;BME280;68856;45.586;10.264;2023-08-24T00:35:16;99416.94;;;28.24;100.00
79400;BME280;68856;45.586;10.264;2023-08-24T00:37:42;99419.81;;;28.09;100.00
79400;BME280;68856;45.586;10.264;2023-08-24T00:40:09;99412.38;;;27.97;100.00
79400;BME280;68856;45.586;10.264;2023-08-24T00:42:44;99424.94;;;27.53;100.00
79400;BME280;68856;45.586;10.264;2023-08-24T00:45:13;99425.47;;;27.77;100.00
79400;BME280;68856;45.586;10.264;2023-08-24T00:47:44;99420.44;;;27.48;100.00
79400;BME280;68856;45.586;10.264;2023-08-24T00:50:11;99419.56;;;27.79;100.00
79400;BME280;68856;45.586;10.264;2023-08-24T00:52:42;99421.53;;;27.78;100.00
79400;BME280;68856;45.586;10.264;2023-08-24T00:55:09;99415.16;;;27.97;100.00
79400;BME280;68856;45.586;10.264;2023-08-24T00:57:40;99411.78;;;28.26;100.00
79400;BME280;68856;45.586;10.264;2023-08-24T01:00:09;99419.16;;;27.61;100.00
79400;BME280;68856;45.586;10.264;2023-08-24T01:02:37;99420.09;;;28.04;100.00
79400;BME280;68856;45.586;10.264;2023-08-24T01:05:03;99428.22;;;27.93;100.00
79400;BME280;68856;45.586;10.264;2023-08-24T01:07:37;99434.53;;;27.90;100.00
79400;BME280;68856;45.586;10.264;2023-08-24T01:10:06;99428.69;;;27.60;100.00
79400;BME280;68856;45.586;10.264;2023-08-24T01:12:50;99427.50;;;27.77;100.00
79400;BME280;68856;45.586;10.264;2023-08-24T01:15:32;99428.84;;;27.67;100.00
79400;BME280;68856;45.586;10.264;2023-08-24T01:18:08;99409.19;;;27.99;100.00
79400;BME280;68856;45.586;10.264;2023-08-24T01:20:36;99408.75;;;27.97;100.00
79400;BME280;68856;45.586;10.264;2023-08-24T01:23:41;99399.66;;;28.19;100.00
79400;BME280;68856;45.586;10.264;2023-08-24T01:26:11;99409.88;;;28.11;100.00
79400;BME280;68856;45.586;10.264;2023-08-24T01:28:38;99412.44;;;27.47;100.00
79400;BME280;68856;45.586;10.264;2023-08-24T01:31:07;99412.63;;;27.73;100.00
79400;BME280;68856;45.586;10.264;2023-08-24T01:33:34;99422.16;;;27.37;100.00
79400;BME280;68856;45.586;10.264;2023-08-24T01:36:00;99414.13;;;27.51;100.00
79400;BME280;68856;45.586;10.264;2023-08-24T01:38:27;99418.31;;;27.76;100.00
79400;BME280;68856;45.586;10.264;2023-08-24T01:43:33;99418.69;;;27.59;100.00
79400;BME280;68856;45.586;10.264;2023-08-24T01:46:04;99408.38;;;27.44;100.00
79400;BME280;68856;45.586;10.264;2023-08-24T01:48:32;99415.22;;;27.15;100.00
79400;BME280;68856;45.586;10.264;2023-08-24T01:50:59;99410.28;;;27.25;100.00
79400;BME280;68856;45.586;10.264;2023-08-24T01:53:30;99415.88;;;27.40;100.00
79400;BME280;68856;45.586;10.264;2023-08-24T01:55:56;99408.34;;;27.60;100.00
79400;BME280;68856;45.586;10.264;2023-08-24T01:58:23;99398.91;;;27.83;100.00
79400;BME280;68856;45.586;10.264;2023-08-24T02:00:49;99413.78;;;27.37;100.00
79400;BME280;68856;45.586;10.264;2023-08-24T02:03:16;99401.94;;;27.59;100.00
79400;BME280;68856;45.586;10.264;2023-08-24T02:05:42;99406.69;;;27.40;100.00
79400;BME280;68856;45.586;10.264;2023-08-24T02:08:08;99405.41;;;27.53;100.00
79400;BME280;68856;45.586;10.264;2023-08-24T02:10:34;99403.28;;;27.15;100.00
79400;BME280;68856;45.586;10.264;2023-08-24T02:13:01;99401.53;;;27.26;100.00
79400;BME280;68856;45.586;10.264;2023-08-24T02:15:27;99395.81;;;27.19;100.00
79400;BME280;68856;45.586;10.264;2023-08-24T02:17:53;99395.97;;;27.26;100.00
79400;BME280;68856;45.586;10.264;2023-08-24T02:20:20;99393.22;;;27.61;100.00
79400;BME280;68856;45.586;10.264;2023-08-24T02:22:46;99394.94;;;26.99;100.00
79400;BME280;68856;45.586;10.264;2023-08-24T02:25:12;99391.19;;;27.42;100.00
79400;BME280;68856;45.586;10.264;2023-08-24T02:27:39;99395.25;;;27.29;100.00
79400;BME280;68856;45.586;10.264;2023-08-24T02:30:05;99394.47;;;27.63;100.00
79400;BME280;68856;45.586;10.264;2023-08-24T02:32:32;99391.75;;;27.16;100.00
79400;BME280;68856;45.586;10.264;2023-08-24T02:34:58;99386.44;;;27.27;100.00
79400;BME280;68856;45.586;10.264;2023-08-24T02:37:24;99394.94;;;27.15;100.00
79400;BME280;68856;45.586;10.264;2023-08-24T02:39:51;99397.88;;;27.22;100.00
79400;BME280;68856;45.586;10.264;2023-08-24T02:42:17;99400.38;;;27.27;100.00
79400;BME280;68856;45.586;10.264;2023-08-24T02:44:43;99386.00;;;27.41;100.00
79400;BME280;68856;45.586;10.264;2023-08-24T02:47:09;99395.44;;;27.05;100.00
79400;BME280;68856;45.586;10.264;2023-08-24T02:49:36;99394.81;;;27.27;100.00
79400;BME280;68856;45.586;10.264;2023-08-24T02:52:02;99395.38;;;27.17;100.00
79400;BME280;68856;45.586;10.264;2023-08-24T02:54:28;99397.72;;;26.84;100.00
79400;BME280;68856;45.586;10.264;2023-08-24T02:56:54;99393.28;;;26.67;100.00
79400;BME280;68856;45.586;10.264;2023-08-24T02:59:21;99390.91;;;26.97;100.00
79400;BME280;68856;45.586;10.264;2023-08-24T03:01:47;99389.00;;;26.85;100.00
79400;BME280;68856;45.586;10.264;2023-08-24T03:04:13;99381.41;;;27.17;100.00
79400;BME280;68856;45.586;10.264;2023-08-24T03:06:39;99383.94;;;27.22;100.00
79400;BME280;68856;45.586;10.264;2023-08-24T03:09:06;99387.97;;;26.62;100.00
79400;BME280;68856;45.586;10.264;2023-08-24T03:11:32;99382.31;;;26.90;100.00
79400;BME280;68856;45.586;10.264;2023-08-24T03:13:59;99385.22;;;26.93;100.00
79400;BME280;68856;45.586;10.264;2023-08-24T03:16:25;99389.00;;;26.85;100.00
79400;BME280;68856;45.586;10.264;2023-08-24T03:18:52;99375.69;;;26.94;100.00
79400;BME280;68856;45.586;10.264;2023-08-24T03:21:18;99369.91;;;27.03;100.00
79400;BME280;68856;45.586;10.264;2023-08-24T03:23:44;99378.47;;;26.94;100.00
79400;BME280;68856;45.586;10.264;2023-08-24T03:26:11;99381.28;;;27.29;100.00
79400;BME280;68856;45.586;10.264;2023-08-24T03:28:37;99385.38;;;26.85;100.00
79400;BME280;68856;45.586;10.264;2023-08-24T03:31:03;99394.41;;;26.35;100.00
79400;BME280;68856;45.586;10.264;2023-08-24T03:33:29;99402.25;;;26.45;100.00
79400;BME280;68856;45.586;10.264;2023-08-24T03:35:56;99405.59;;;26.50;100.00
79400;BME280;68856;45.586;10.264;2023-08-24T03:38:23;99401.34;;;26.56;100.00
79400;BME280;68856;45.586;10.264;2023-08-24T03:40:49;99401.09;;;26.61;100.00
79400;BME280;68856;45.586;10.264;2023-08-24T03:43:15;99390.91;;;26.97;100.00
79400;BME280;68856;45.586;10.264;2023-08-24T03:45:42;99396.47;;;26.81;100.00
79400;BME280;68856;45.586;10.264;2023-08-24T03:48:09;99396.50;;;26.69;100.00
79400;BME280;68856;45.586;10.264;2023-08-24T03:50:36;99392.06;;;26.96;100.00
79400;BME280;68856;45.586;10.264;2023-08-24T03:53:03;99401.00;;;26.58;100.00
79400;BME280;68856;45.586;10.264;2023-08-24T03:55:29;99398.00;;;26.79;100.00
79400;BME280;68856;45.586;10.264;2023-08-24T03:57:55;99404.91;;;26.85;100.00
79400;BME280;68856;45.586;10.264;2023-08-24T04:00:23;99404.94;;;26.41;100.00
79400;BME280;68856;45.586;10.264;2023-08-24T04:02:49;99409.84;;;26.76;100.00
79400;BME280;68856;45.586;10.264;2023-08-24T04:05:15;99411.13;;;26.35;100.00
79400;BME280;68856;45.586;10.264;2023-08-24T04:07:41;99408.28;;;26.63;100.00
79400;BME280;68856;45.586;10.264;2023-08-24T04:10:08;99409.72;;;26.56;100.00
79400;BME280;68856;45.586;10.264;2023-08-24T04:12:35;99405.34;;;26.87;100.00
79400;BME280;68856;45.586;10.264;2023-08-24T04:15:02;99404.72;;;27.09;100.00
79400;BME280;68856;45.586;10.264;2023-08-24T04:17:28;99410.13;;;27.02;100.00
79400;BME280;68856;45.586;10.264;2023-08-24T04:19:55;99416.06;;;26.41;100.00
79400;BME280;68856;45.586;10.264;2023-08-24T04:22:21;99419.16;;;26.52;100.00
79400;BME280;68856;45.586;10.264;2023-08-24T04:24:47;99410.81;;;26.68;100.00
79400;BME280;68856;45.586;10.264;2023-08-24T04:27:15;99414.75;;;26.67;100.00
79400;BME280;68856;45.586;10.264;2023-08-24T04:29:41;99420.00;;;26.68;100.00
79400;BME280;68856;45.586;10.264;2023-08-24T04:32:07;99416.91;;;26.57;100.00
79400;BME280;68856;45.586;10.264;2023-08-24T04:34:34;99427.34;;;26.60;100.00
79400;BME280;68856;45.586;10.264;2023-08-24T04:37:00;99422.28;;;26.78;100.00
79400;BME280;68856;45.586;10.264;2023-08-24T04:39:27;99420.69;;;26.65;100.00
79400;BME280;68856;45.586;10.264;2023-08-24T04:41:55;99423.66;;;26.72;100.00
79400;BME280;68856;45.586;10.264;2023-08-24T04:44:22;99421.03;;;26.63;100.00
79400;BME280;68856;45.586;10.264;2023-08-24T04:46:48;99422.78;;;26.68;100.00
79400;BME280;68856;45.586;10.264;2023-08-24T04:49:15;99423.81;;;26.48;100.00
79400;BME280;68856;45.586;10.264;2023-08-24T04:51:41;99425.44;;;26.49;100.00
79400;BME280;68856;45.586;10.264;2023-08-24T04:54:07;99421.31;;;26.58;100.00
79400;BME280;68856;45.586;10.264;2023-08-24T04:56:35;99430.19;;;26.48;100.00
79400;BME280;68856;45.586;10.264;2023-08-24T04:59:01;99424.69;;;26.36;100.00
79400;BME280;68856;45.586;10.264;2023-08-24T05:01:28;99431.72;;;26.46;100.00
79400;BME280;68856;45.586;10.264;2023-08-24T05:03:57;99430.25;;;26.36;100.00
79400;BME280;68856;45.586;10.264;2023-08-24T05:06:24;99437.41;;;26.22;100.00
79400;BME280;68856;45.586;10.264;2023-08-24T05:08:50;99441.88;;;26.54;100.00
79400;BME280;68856;45.586;10.264;2023-08-24T05:11:25;99433.22;;;26.43;100.00
79400;BME280;68856;45.586;10.264;2023-08-24T05:13:52;99438.50;;;26.33;100.00
79400;BME280;68856;45.586;10.264;2023-08-24T05:16:18;99440.53;;;26.20;100.00
79400;BME280;68856;45.586;10.264;2023-08-24T05:18:44;99439.13;;;26.26;100.00
79400;BME280;68856;45.586;10.264;2023-08-24T05:21:12;99439.38;;;26.49;100.00
79400;BME280;68856;45.586;10.264;2023-08-24T05:23:38;99440.44;;;26.17;100.00
79400;BME280;68856;45.586;10.264;2023-08-24T05:26:04;99437.28;;;26.46;100.00
79400;BME280;68856;45.586;10.264;2023-08-24T05:28:32;99441.72;;;26.19;100.00
79400;BME280;68856;45.586;10.264;2023-08-24T05:30:59;99444.28;;;26.00;100.00
79400;BME280;68856;45.586;10.264;2023-08-24T05:33:26;99440.63;;;26.51;100.00
79400;BME280;68856;45.586;10.264;2023-08-24T05:35:53;99446.09;;;26.20;100.00
79400;BME280;68856;45.586;10.264;2023-08-24T05:38:19;99445.69;;;25.94;100.00
79400;BME280;68856;45.586;10.264;2023-08-24T05:40:49;99445.91;;;26.13;100.00
79400;BME280;68856;45.586;10.264;2023-08-24T05:43:16;99451.81;;;26.12;100.00
79400;BME280;68856;45.586;10.264;2023-08-24T05:45:42;99449.03;;;26.12;100.00
79400;BME280;68856;45.586;10.264;2023-08-24T05:48:11;99449.81;;;26.24;100.00
79400;BME280;68856;45.586;10.264;2023-08-24T05:50:42;99451.53;;;26.29;100.00
79400;BME280;68856;45.586;10.264;2023-08-24T05:53:08;99456.09;;;26.21;100.00
79400;BME280;68856;45.586;10.264;2023-08-24T05:55:35;99461.66;;;26.49;100.00
79400;BME280;68856;45.586;10.264;2023-08-24T05:58:01;99457.31;;;26.79;100.00
79400;BME280;68856;45.586;10.264;2023-08-24T06:00:27;99462.03;;;26.47;100.00
79400;BME280;68856;45.586;10.264;2023-08-24T06:02:55;99462.06;;;26.63;100.00
79400;BME280;68856;45.586;10.264;2023-08-24T06:05:21;99468.38;;;26.76;100.00
79400;BME280;68856;45.586;10.264;2023-08-24T06:07:47;99477.25;;;26.66;100.00
79400;BME280;68856;45.586;10.264;2023-08-24T06:10:14;99475.81;;;26.99;100.00
79400;BME280;68856;45.586;10.264;2023-08-24T06:12:40;99480.22;;;27.16;100.00
79400;BME280;68856;45.586;10.264;2023-08-24T06:15:07;99477.50;;;27.04;100.00
79400;BME280;68856;45.586;10.264;2023-08-24T06:17:36;99473.72;;;26.96;100.00
79400;BME280;68856;45.586;10.264;2023-08-24T06:20:05;99460.34;;;27.02;100.00
79400;BME280;68856;45.586;10.264;2023-08-24T06:22:31;99459.78;;;27.12;100.00
79400;BME280;68856;45.586;10.264;2023-08-24T06:24:58;99452.41;;;27.35;100.00
79400;BME280;68856;45.586;10.264;2023-08-24T06:27:26;99453.00;;;27.60;100.00
79400;BME280;68856;45.586;10.264;2023-08-24T06:29:52;99450.91;;;27.72;100.00
79400;BME280;68856;45.586;10.264;2023-08-24T06:32:19;99459.91;;;27.81;100.00
79400;BME280;68856;45.586;10.264;2023-08-24T06:34:45;99448.34;;;27.83;100.00
79400;BME280;68856;45.586;10.264;2023-08-24T06:37:11;99459.41;;;27.60;100.00
79400;BME280;68856;45.586;10.264;2023-08-24T06:39:37;99459.97;;;27.50;100.00
79400;BME280;68856;45.586;10.264;2023-08-24T06:42:04;99462.56;;;27.59;100.00
79400;BME280;68856;45.586;10.264;2023-08-24T06:44:30;99459.38;;;27.76;100.00
79400;BME280;68856;45.586;10.264;2023-08-24T06:46:56;99468.13;;;27.94;100.00
79400;BME280;68856;45.586;10.264;2023-08-24T06:49:23;99461.59;;;27.86;100.00
79400;BME280;68856;45.586;10.264;2023-08-24T06:51:49;99467.66;;;27.72;100.00
79400;BME280;68856;45.586;10.264;2023-08-24T06:54:15;99456.28;;;27.81;100.00
79400;BME280;68856;45.586;10.264;2023-08-24T06:56:41;99462.53;;;27.94;100.00
79400;BME280;68856;45.586;10.264;2023-08-24T06:59:09;99452.69;;;28.15;100.00
79400;BME280;68856;45.586;10.264;2023-08-24T07:01:37;99461.28;;;28.07;100.00
79400;BME280;68856;45.586;10.264;2023-08-24T07:04:03;99446.41;;;28.22;100.00
79400;BME280;68856;45.586;10.264;2023-08-24T07:06:29;99453.78;;;28.30;100.00
79400;BME280;68856;45.586;10.264;2023-08-24T07:08:56;99439.88;;;28.33;100.00
79400;BME280;68856;45.586;10.264;2023-08-24T07:11:22;99451.72;;;28.27;100.00
79400;BME280;68856;45.586;10.264;2023-08-24T07:13:49;99445.09;;;28.35;100.00
79400;BME280;68856;45.586;10.264;2023-08-24T07:16:16;99444.44;;;28.41;100.00
79400;BME280;68856;45.586;10.264;2023-08-24T07:18:43;99447.88;;;28.35;100.00
79400;BME280;68856;45.586;10.264;2023-08-24T07:21:09;99443.13;;;28.35;100.00
79400;BME280;68856;45.586;10.264;2023-08-24T07:23:35;99444.44;;;28.41;100.00
79400;BME280;68856;45.586;10.264;2023-08-24T07:26:01;99435.38;;;28.48;100.00
79400;BME280;68856;45.586;10.264;2023-08-24T07:28:27;99431.84;;;28.51;100.00
79400;BME280;68856;45.586;10.264;2023-08-24T07:30:54;99448.47;;;28.44;100.00
79400;BME280;68856;45.586;10.264;2023-08-24T07:33:22;99443.84;;;28.32;100.00
79400;BME280;68856;45.586;10.264;2023-08-24T07:35:48;99437.00;;;28.49;100.00
79400;BME280;68856;45.586;10.264;2023-08-24T07:38:14;99443.59;;;28.60;100.00
79400;BME280;68856;45.586;10.264;2023-08-24T07:40:41;99442.88;;;28.63;100.00
79400;BME280;68856;45.586;10.264;2023-08-24T07:43:07;99434.88;;;28.62;100.00
79400;BME280;68856;45.586;10.264;2023-08-24T07:45:33;99434.69;;;28.74;100.00
79400;BME280;68856;45.586;10.264;2023-08-24T07:47:59;99435.19;;;28.79;100.00
79400;BME280;68856;45.586;10.264;2023-08-24T07:50:26;99439.25;;;28.82;100.00
79400;BME280;68856;45.586;10.264;2023-08-24T07:52:52;99439.75;;;28.87;100.00
79400;BME280;68856;45.586;10.264;2023-08-24T07:55:19;99434.56;;;28.89;100.00
79400;BME280;68856;45.586;10.264;2023-08-24T07:57:46;99436.19;;;28.90;100.00
79400;BME280;68856;45.586;10.264;2023-08-24T08:00:14;99431.84;;;28.93;100.00
79400;BME280;68856;45.586;10.264;2023-08-24T08:02:41;99428.34;;;28.99;100.00
79400;BME280;68856;45.586;10.264;2023-08-24T08:05:07;99433.56;;;29.01;100.00
79400;BME280;68856;45.586;10.264;2023-08-24T08:07:34;99438.09;;;29.09;100.00
79400;BME280;68856;45.586;10.264;2023-08-24T08:10:00;99442.75;;;29.21;100.00
79400;BME280;68856;45.586;10.264;2023-08-24T08:12:26;99435.47;;;29.20;100.00
79400;BME280;68856;45.586;10.264;2023-08-24T08:14:53;99434.44;;;29.28;100.00
79400;BME280;68856;45.586;10.264;2023-08-24T08:17:19;99436.44;;;29.27;100.00
79400;BME280;68856;45.586;10.264;2023-08-24T08:19:45;99435.69;;;29.30;100.00
79400;BME280;68856;45.586;10.264;2023-08-24T08:22:13;99435.00;;;29.37;100.00
79400;BME280;68856;45.586;10.264;2023-08-24T08:24:39;99428.69;;;29.43;100.00
79400;BME280;68856;45.586;10.264;2023-08-24T08:27:05;99423.59;;;29.49;100.00
79400;BME280;68856;45.586;10.264;2023-08-24T08:29:33;99420.84;;;29.52;100.00
79400;BME280;68856;45.586;10.264;2023-08-24T08:31:59;99422.94;;;29.59;100.00
79400;BME280;68856;45.586;10.264;2023-08-24T08:34:26;99423.50;;;29.72;100.00
79400;BME280;68856;45.586;10.264;2023-08-24T08:36:52;99421.19;;;29.77;100.00
79400;BME280;68856;45.586;10.264;2023-08-24T08:39:18;99421.91;;;29.71;100.00
79400;BME280;68856;45.586;10.264;2023-08-24T08:41:46;99424.28;;;29.69;100.00
79400;BME280;68856;45.586;10.264;2023-08-24T08:44:13;99425.25;;;29.80;100.00
79400;BME280;68856;45.586;10.264;2023-08-24T08:46:41;99426.94;;;30.14;100.00
79400;BME280;68856;45.586;10.264;2023-08-24T08:49:09;99436.00;;;30.04;100.00
79400;BME280;68856;45.586;10.264;2023-08-24T08:51:37;99425.16;;;30.02;100.00
79400;BME280;68856;45.586;10.264;2023-08-24T08:54:04;99425.97;;;30.03;100.00
79400;BME280;68856;45.586;10.264;2023-08-24T08:56:32;99426.78;;;30.03;100.00
79400;BME280;68856;45.586;10.264;2023-08-24T08:58:59;99421.88;;;30.27;100.00
79400;BME280;68856;45.586;10.264;2023-08-24T09:01:27;99414.28;;;30.27;100.00
79400;BME280;68856;45.586;10.264;2023-08-24T09:03:54;99425.16;;;30.32;100.00
79400;BME280;68856;45.586;10.264;2023-08-24T09:06:23;99421.69;;;30.42;100.00
79400;BME280;68856;45.586;10.264;2023-08-24T09:08:50;99415.59;;;30.37;100.00
79400;BME280;68856;45.586;10.264;2023-08-24T09:11:17;99415.66;;;30.40;100.00
79400;BME280;68856;45.586;10.264;2023-08-24T09:13:45;99413.53;;;30.34;100.00
79400;BME280;68856;45.586;10.264;2023-08-24T09:16:11;99411.72;;;30.48;100.00
79400;BME280;68856;45.586;10.264;2023-08-24T09:18:45;99409.53;;;30.68;100.00
79400;BME280;68856;45.586;10.264;2023-08-24T09:21:13;99410.28;;;30.65;100.00
79400;BME280;68856;45.586;10.264;2023-08-24T09:23:44;99401.94;;;30.72;100.00
79400;BME280;68856;45.586;10.264;2023-08-24T09:26:12;99402.09;;;30.86;100.00
79400;BME280;68856;45.586;10.264;2023-08-24T09:28:39;99399.47;;;31.04;100.00
79400;BME280;68856;45.586;10.264;2023-08-24T09:31:08;99401.06;;;31.01;100.00
79400;BME280;68856;45.586;10.264;2023-08-24T09:33:35;99404.75;;;31.16;100.00
79400;BME280;68856;45.586;10.264;2023-08-24T09:36:01;99399.97;;;31.16;100.00
79400;BME280;68856;45.586;10.264;2023-08-24T09:38:31;99397.84;;;31.03;100.00
79400;BME280;68856;45.586;10.264;2023-08-24T09:40:58;99397.06;;;31.06;100.00
79400;BME280;68856;45.586;10.264;2023-08-24T09:43:24;99389.53;;;31.17;100.00
79400;BME280;68856;45.586;10.264;2023-08-24T09:45:56;99391.22;;;31.25;100.00
79400;BME280;68856;45.586;10.264;2023-08-24T09:48:23;99384.66;;;31.10;100.00
79400;BME280;68856;45.586;10.264;2023-08-24T09:50:53;99383.16;;;31.23;100.00
79400;BME280;68856;45.586;10.264;2023-08-24T09:53:23;99378.03;;;31.32;100.00
79400;BME280;68856;45.586;10.264;2023-08-24T09:58:18;99366.88;;;31.43;100.00
79400;BME280;68856;45.586;10.264;2023-08-24T10:00:46;99376.22;;;31.58;100.00
79400;BME280;68856;45.586;10.264;2023-08-24T10:03:20;99371.06;;;31.67;100.00
79400;BME280;68856;45.586;10.264;2023-08-24T10:05:54;99371.84;;;31.64;100.00
79400;BME280;68856;45.586;10.264;2023-08-24T10:08:29;99374.25;;;31.62;100.00
79400;BME280;68856;45.586;10.264;2023-08-24T10:10:56;99366.78;;;31.97;100.00
79400;BME280;68856;45.586;10.264;2023-08-24T10:13:43;99369.06;;;31.71;100.00
79400;BME280;68856;45.586;10.264;2023-08-24T10:16:14;99365.75;;;31.55;100.00
79400;BME280;68856;45.586;10.264;2023-08-24T10:18:41;99366.25;;;31.71;100.00
79400;BME280;68856;45.586;10.264;2023-08-24T10:21:08;99365.78;;;31.58;100.00
79400;BME280;68856;45.586;10.264;2023-08-24T10:23:38;99357.69;;;31.46;100.00
79400;BME280;68856;45.586;10.264;2023-08-24T10:26:07;99352.09;;;31.50;100.00
79400;BME280;68856;45.586;10.264;2023-08-24T10:28:34;99355.19;;;31.37;100.00
79400;BME280;68856;45.586;10.264;2023-08-24T10:31:01;99350.19;;;31.75;100.00
79400;BME280;68856;45.586;10.264;2023-08-24T10:33:28;99353.50;;;31.87;100.00
79400;BME280;68856;45.586;10.264;2023-08-24T10:35:55;99351.03;;;31.79;100.00
79400;BME280;68856;45.586;10.264;2023-08-24T10:38:29;99348.22;;;31.82;100.00
79400;BME280;68856;45.586;10.264;2023-08-24T10:41:02;99345.00;;;31.77;100.00
79400;BME280;68856;45.586;10.264;2023-08-24T10:43:39;99337.09;;;32.00;100.00
79400;BME280;68856;45.586;10.264;2023-08-24T10:46:12;99339.59;;;32.26;100.00
79400;BME280;68856;45.586;10.264;2023-08-24T10:54:02;99336.78;;;32.37;93.45
79400;BME280;68856;45.586;10.264;2023-08-24T10:56:36;99327.91;;;32.24;100.00
79400;BME280;68856;45.586;10.264;2023-08-24T10:59:16;99330.34;;;32.22;100.00
79400;BME280;68856;45.586;10.264;2023-08-24T11:04:19;99322.31;;;32.42;95.54
79400;BME280;68856;45.586;10.264;2023-08-24T11:06:56;99318.72;;;32.45;100.00
79400;BME280;68856;45.586;10.264;2023-08-24T11:09:25;99323.13;;;32.42;99.50
79400;BME280;68856;45.586;10.264;2023-08-24T11:12:02;99323.59;;;32.69;92.88
79400;BME280;68856;45.586;10.264;2023-08-24T11:14:29;99315.56;;;32.75;95.78
79400;BME280;68856;45.586;10.264;2023-08-24T11:17:00;99313.56;;;32.75;94.70
79400;BME280;68856;45.586;10.264;2023-08-24T11:19:28;99320.38;;;32.88;89.87
79400;BME280;68856;45.586;10.264;2023-08-24T11:21:56;99315.56;;;32.96;88.88
79400;BME280;68856;45.586;10.264;2023-08-24T11:24:24;99313.16;;;32.70;98.20
79400;BME280;68856;45.586;10.264;2023-08-24T11:26:50;99311.53;;;32.93;93.03
79400;BME280;68856;45.586;10.264;2023-08-24T11:29:18;99309.91;;;33.03;89.90
79400;BME280;68856;45.586;10.264;2023-08-24T11:31:45;99307.09;;;32.92;94.04
79400;BME280;68856;45.586;10.264;2023-08-24T11:34:14;99303.88;;;32.87;97.91
79400;BME280;68856;45.586;10.264;2023-08-24T11:36:45;99295.44;;;32.76;95.48
79400;BME280;68856;45.586;10.264;2023-08-24T11:39:16;99295.03;;;32.81;97.90
79400;BME280;68856;45.586;10.264;2023-08-24T11:44:23;99300.28;;;32.90;92.52
79400;BME280;68856;45.586;10.264;2023-08-24T11:46:50;99297.88;;;33.06;87.12
79400;BME280;68856;45.586;10.264;2023-08-24T11:49:16;99299.47;;;33.14;88.48
79400;BME280;68856;45.586;10.264;2023-08-24T11:51:43;99286.19;;;33.18;90.40
79400;BME280;68856;45.586;10.264;2023-08-24T11:54:09;99294.25;;;33.16;87.96
79400;BME280;68856;45.586;10.264;2023-08-24T11:56:45;99293.78;;;33.28;84.01
79400;BME280;68856;45.586;10.264;2023-08-24T11:59:16;99290.63;;;33.19;89.18
79400;BME280;68856;45.586;10.264;2023-08-24T12:01:43;99280.88;;;33.45;81.73
79400;BME280;68856;45.586;10.264;2023-08-24T12:04:11;99272.84;;;33.36;87.51
79400;BME280;68856;45.586;10.264;2023-08-24T12:06:38;99271.19;;;33.46;89.71
79400;BME280;68856;45.586;10.264;2023-08-24T12:09:06;99275.25;;;33.55;83.55
79400;BME280;68856;45.586;10.264;2023-08-24T12:11:36;99274.81;;;33.50;78.21
79400;BME280;68856;45.586;10.264;2023-08-24T12:14:03;99274.41;;;33.58;82.39
79400;BME280;68856;45.586;10.264;2023-08-24T12:16:32;99274.44;;;33.44;85.14
79400;BME280;68856;45.586;10.264;2023-08-24T12:18:59;99271.19;;;33.49;83.58
79400;BME280;68856;45.586;10.264;2023-08-24T12:21:29;99275.22;;;33.59;80.94
79400;BME280;68856;45.586;10.264;2023-08-24T12:24:04;99265.50;;;33.63;80.79
79400;BME280;68856;45.586;10.264;2023-08-24T12:26:35;99265.94;;;33.65;85.44
79400;BME280;68856;45.586;10.264;2023-08-24T12:29:07;99259.03;;;33.73;84.37
79400;BME280;68856;45.586;10.264;2023-08-24T12:31:34;99253.03;;;33.68;81.17
79400;BME280;68856;45.586;10.264;2023-08-24T12:34:06;99258.56;;;33.85;79.82
79400;BME280;68856;45.586;10.264;2023-08-24T12:36:37;99254.94;;;33.89;81.00
79400;BME280;68856;45.586;10.264;2023-08-24T12:39:07;99253.31;;;33.88;74.05
79400;BME280;68856;45.586;10.264;2023-08-24T12:41:36;99252.13;;;33.81;82.07
79400;BME280;68856;45.586;10.264;2023-08-24T12:44:02;99250.94;;;33.86;76.94
79400;BME280;68856;45.586;10.264;2023-08-24T12:46:34;99240.00;;;33.92;77.21
79400;BME280;68856;45.586;10.264;2023-08-24T12:49:03;99245.63;;;33.92;74.86
79400;BME280;68856;45.586;10.264;2023-08-24T12:51:30;99241.94;;;34.05;73.27
79400;BME280;68856;45.586;10.264;2023-08-24T12:53:56;99244.06;;;33.91;72.59
79400;BME280;68856;45.586;10.264;2023-08-24T12:56:23;99243.19;;;33.97;77.34
79400;BME280;68856;45.586;10.264;2023-08-24T12:58:49;99234.72;;;33.97;72.94